createdAt,value
2023-01-08T00:01:34.594Z,8.79
2023-01-08T00:04:05.972Z,8.76
2023-01-08T00:06:37.651Z,8.76
2023-01-08T00:09:10.389Z,8.77
2023-01-08T00:11:41.710Z,8.78
2023-01-08T00:14:12.967Z,8.71
2023-01-08T00:16:44.412Z,8.77
2023-01-08T00:19:15.766Z,8.80
2023-01-08T00:21:47.116Z,8.83
2023-01-08T00:24:18.480Z,8.85
2023-01-08T00:26:49.735Z,8.81
2023-01-08T00:29:20.993Z,8.88
2023-01-08T00:31:52.250Z,8.91
2023-01-08T00:34:23.583Z,8.91
2023-01-08T00:36:54.907Z,8.90
2023-01-08T00:39:26.441Z,8.88
2023-01-08T00:41:57.686Z,8.88
2023-01-08T00:44:29.091Z,8.85
2023-01-08T00:47:00.371Z,8.81
2023-01-08T00:49:31.648Z,8.81
2023-01-08T00:52:02.991Z,8.81
2023-01-08T00:54:34.249Z,8.73
2023-01-08T00:57:05.514Z,8.81
2023-01-08T00:59:36.805Z,8.80
2023-01-08T01:02:09.042Z,8.79
2023-01-08T01:04:40.478Z,8.80
2023-01-08T01:07:11.759Z,8.77
2023-01-08T01:09:43.001Z,8.77
2023-01-08T01:12:14.309Z,8.85
2023-01-08T01:14:45.657Z,8.88
2023-01-08T01:17:17.006Z,8.90
2023-01-08T01:19:48.276Z,8.86
2023-01-08T01:22:19.550Z,8.94
2023-01-08T01:24:50.842Z,8.96
2023-01-08T01:27:22.265Z,8.99
2023-01-08T01:29:53.870Z,8.94
2023-01-08T01:32:25.177Z,9.03
2023-01-08T01:34:56.432Z,9.05
2023-01-08T01:37:27.949Z,9.07
2023-01-08T01:39:59.247Z,9.10
2023-01-08T01:42:40.482Z,9.02
2023-01-08T01:45:27.564Z,9.15
2023-01-08T01:48:10.258Z,9.17
2023-01-08T01:50:48.983Z,9.21
2023-01-08T01:53:32.512Z,9.22
2023-01-08T01:56:04.898Z,9.26
2023-01-08T01:58:36.287Z,9.15
2023-01-08T02:01:09.740Z,9.28
2023-01-08T02:03:41.231Z,9.27
2023-01-08T02:06:36.437Z,9.29
2023-01-08T02:09:26.407Z,9.32
2023-01-08T02:12:30.978Z,9.33
2023-01-08T02:15:08.478Z,9.32
2023-01-08T02:18:02.922Z,9.34
2023-01-08T02:20:39.519Z,9.35
2023-01-08T02:23:25.641Z,9.35
2023-01-08T02:26:11.825Z,9.26
2023-01-08T02:28:46.301Z,9.34
2023-01-08T02:31:20.104Z,9.35
2023-01-08T02:33:51.638Z,9.35
2023-01-08T02:36:25.797Z,9.33
2023-01-08T02:39:14.333Z,9.32
2023-01-08T02:42:08.548Z,9.32
2023-01-08T02:45:15.354Z,9.33
2023-01-08T02:47:50.984Z,9.34
2023-01-08T02:50:31.454Z,9.35
2023-01-08T02:54:09.742Z,9.35
2023-01-08T02:56:46.274Z,9.35
2023-01-08T02:59:19.695Z,9.34
2023-01-08T03:01:52.323Z,9.25
2023-01-08T03:04:26.260Z,9.26
2023-01-08T03:06:57.544Z,9.24
2023-01-08T03:09:29.875Z,9.34
2023-01-08T03:12:28.963Z,9.35
2023-01-08T03:15:07.193Z,9.35
2023-01-08T03:17:49.055Z,9.28
2023-01-08T03:20:23.089Z,9.34
2023-01-08T03:22:57.053Z,9.35
2023-01-08T03:25:30.255Z,9.28
2023-01-08T03:28:06.937Z,9.36
2023-01-08T03:30:41.104Z,9.36
2023-01-08T03:33:14.789Z,9.23
2023-01-08T03:35:50.816Z,9.36
2023-01-08T03:38:28.853Z,9.39
2023-01-08T03:41:04.968Z,9.39
2023-01-08T03:43:36.401Z,9.35
2023-01-08T03:46:14.409Z,9.24
2023-01-08T03:48:46.954Z,9.41
2023-01-08T03:51:18.828Z,9.27
2023-01-08T03:53:54.286Z,9.40
2023-01-08T03:56:26.030Z,9.42
2023-01-08T03:58:57.282Z,9.43
2023-01-08T04:01:28.672Z,9.43
2023-01-08T04:04:00.098Z,9.45
2023-01-08T04:06:31.501Z,9.47
2023-01-08T04:09:03.572Z,9.41
2023-01-08T04:11:34.895Z,9.50
2023-01-08T04:14:06.257Z,9.43
2023-01-08T04:16:37.740Z,9.49
2023-01-08T04:19:11.210Z,9.54
2023-01-08T04:21:42.513Z,9.54
2023-01-08T04:24:13.850Z,9.46
2023-01-08T04:26:45.665Z,9.56
2023-01-08T04:29:16.994Z,9.48
2023-01-08T04:31:48.258Z,9.49
2023-01-08T04:34:19.652Z,9.57
2023-01-08T04:36:50.941Z,9.46
2023-01-08T04:39:22.360Z,9.53
2023-01-08T04:41:53.627Z,9.50
2023-01-08T04:44:25.082Z,9.33
2023-01-08T04:46:56.369Z,9.40
2023-01-08T04:49:27.675Z,9.36
2023-01-08T04:51:59.055Z,9.31
2023-01-08T04:54:30.323Z,9.21
2023-01-08T04:57:01.561Z,9.24
2023-01-08T04:59:32.898Z,9.22
2023-01-08T05:02:04.343Z,9.20
2023-01-08T05:04:35.742Z,9.17
2023-01-08T05:07:07.837Z,9.09
2023-01-08T05:09:39.110Z,9.11
2023-01-08T05:12:10.370Z,9.05
2023-01-08T05:14:41.654Z,9.04
2023-01-08T05:17:13.000Z,9.01
2023-01-08T05:19:44.277Z,8.94
2023-01-08T05:22:15.539Z,8.96
2023-01-08T05:24:46.862Z,8.97
2023-01-08T05:27:18.147Z,8.96
2023-01-08T05:29:50.952Z,8.96
2023-01-08T05:32:22.327Z,8.95
2023-01-08T05:34:53.603Z,8.96
2023-01-08T05:37:24.880Z,8.95
2023-01-08T05:39:56.159Z,8.95
2023-01-08T05:42:27.411Z,8.94
2023-01-08T05:44:58.702Z,8.85
2023-01-08T05:47:31.097Z,8.92
2023-01-08T05:50:02.886Z,8.88
2023-01-08T05:52:34.185Z,8.90
2023-01-08T05:55:05.918Z,8.89
2023-01-08T05:57:37.323Z,8.81
2023-01-08T06:00:10.673Z,8.80
2023-01-08T06:02:48.839Z,8.84
2023-01-08T06:05:20.231Z,8.78
2023-01-08T06:07:51.526Z,8.80
2023-01-08T06:10:22.811Z,8.78
2023-01-08T06:12:55.384Z,8.70
2023-01-08T06:15:26.679Z,8.77
2023-01-08T06:18:01.610Z,8.77
2023-01-08T06:20:32.899Z,8.78
2023-01-08T06:23:04.208Z,8.72
2023-01-08T06:25:36.841Z,8.82
2023-01-08T06:28:08.387Z,8.84
2023-01-08T06:30:39.647Z,8.85
2023-01-08T06:33:10.970Z,8.88
2023-01-08T06:35:42.435Z,8.87
2023-01-08T06:38:13.704Z,8.91
2023-01-08T06:40:46.218Z,8.91
2023-01-08T06:43:17.889Z,8.92
2023-01-08T06:45:57.876Z,8.91
2023-01-08T06:48:29.163Z,8.88
2023-01-08T06:51:01.792Z,8.82
2023-01-08T06:53:33.190Z,8.77
2023-01-08T06:56:04.887Z,8.74
2023-01-08T06:58:37.338Z,8.74
2023-01-08T07:01:13.963Z,8.76
2023-01-08T07:03:45.493Z,8.79
2023-01-08T07:06:19.408Z,8.81
2023-01-08T07:08:50.949Z,8.83
2023-01-08T07:11:22.276Z,8.87
2023-01-08T07:13:55.829Z,8.82
2023-01-08T07:16:29.689Z,8.94
2023-01-08T07:19:01.082Z,8.98
2023-01-08T07:21:32.414Z,8.99
2023-01-08T07:24:04.459Z,9.05
2023-01-08T07:26:36.334Z,8.95
2023-01-08T07:29:07.709Z,9.12
2023-01-08T07:31:39.031Z,9.03
2023-01-08T07:34:10.740Z,9.16
2023-01-08T07:36:42.024Z,9.17
2023-01-08T07:39:13.282Z,9.10
2023-01-08T07:41:44.532Z,9.23
2023-01-08T07:44:15.832Z,9.24
2023-01-08T07:46:47.185Z,9.26
2023-01-08T07:49:18.579Z,9.26
2023-01-08T07:51:49.961Z,9.24
2023-01-08T07:54:21.234Z,9.15
2023-01-08T07:56:54.631Z,9.25
2023-01-08T07:59:26.006Z,9.22
2023-01-08T08:01:57.507Z,9.19
2023-01-08T08:04:28.979Z,9.17
2023-01-08T08:07:00.320Z,9.14
2023-01-08T08:09:31.590Z,9.09
2023-01-08T08:12:03.025Z,9.11
2023-01-08T08:14:34.363Z,9.09
2023-01-08T08:17:05.714Z,9.09
2023-01-08T08:19:37.007Z,9.03
2023-01-08T08:22:08.268Z,9.08
2023-01-08T08:24:39.822Z,9.06
2023-01-08T08:27:11.112Z,8.96
2023-01-08T08:29:42.400Z,9.09
2023-01-08T08:32:13.688Z,9.13
2023-01-08T08:34:44.968Z,9.16
2023-01-08T08:37:16.583Z,9.18
2023-01-08T08:39:47.951Z,9.21
2023-01-08T08:42:19.492Z,9.17
2023-01-08T08:44:50.912Z,9.22
2023-01-08T08:47:22.237Z,9.25
2023-01-08T08:49:53.546Z,9.27
2023-01-08T08:52:24.808Z,9.31
2023-01-08T08:54:56.102Z,9.32
2023-01-08T08:57:27.610Z,9.35
2023-01-08T09:00:01.288Z,9.39
2023-01-08T09:02:33.068Z,9.43
2023-01-08T09:05:05.204Z,9.47
2023-01-08T09:07:36.749Z,9.51
2023-01-08T09:10:08.610Z,9.52
2023-01-08T09:12:39.854Z,9.56
2023-01-08T09:15:11.574Z,9.60
2023-01-08T09:17:42.906Z,9.62
2023-01-08T09:20:14.180Z,9.66
2023-01-08T09:22:45.546Z,9.67
2023-01-08T09:25:17.297Z,9.66
2023-01-08T09:27:48.593Z,9.69
2023-01-08T09:30:19.944Z,9.69
2023-01-08T09:32:51.213Z,9.68
2023-01-08T09:35:22.588Z,9.66
2023-01-08T09:37:55.811Z,9.66
2023-01-08T09:40:44.152Z,9.56
2023-01-08T09:43:19.668Z,9.59
2023-01-08T09:45:55.371Z,9.66
2023-01-08T09:48:30.951Z,9.73
2023-01-08T09:51:02.544Z,9.78
2023-01-08T09:53:33.920Z,9.80
2023-01-08T09:56:11.523Z,9.82
2023-01-08T09:58:58.973Z,9.80
2023-01-08T10:01:35.837Z,9.73
2023-01-08T10:04:23.072Z,9.79
2023-01-08T10:06:58.065Z,9.78
2023-01-08T10:09:31.288Z,9.78
2023-01-08T10:12:05.152Z,9.78
2023-01-08T10:14:39.654Z,9.78
2023-01-08T10:17:27.947Z,9.77
2023-01-08T10:19:59.369Z,9.78
2023-01-08T10:22:33.853Z,9.79
2023-01-08T10:25:09.052Z,9.78
2023-01-08T10:27:51.042Z,9.77
2023-01-08T10:30:33.166Z,9.76
2023-01-08T10:33:14.636Z,9.71
2023-01-08T10:35:54.312Z,9.81
2023-01-08T10:38:34.207Z,9.86
2023-01-08T10:41:11.057Z,9.93
2023-01-08T10:43:55.118Z,10.06
2023-01-08T10:46:37.027Z,10.13
2023-01-08T10:49:26.943Z,10.36
2023-01-08T10:51:59.500Z,10.45
2023-01-08T10:54:39.258Z,10.51
2023-01-08T10:57:28.906Z,10.47
2023-01-08T11:00:00.316Z,10.64
2023-01-08T11:02:39.209Z,10.70
2023-01-08T11:05:11.531Z,10.64
2023-01-08T11:07:43.243Z,10.48
2023-01-08T11:10:25.672Z,10.22
2023-01-08T11:12:59.982Z,10.06
2023-01-08T11:15:38.854Z,10.05
2023-01-08T11:18:19.076Z,9.87
2023-01-08T11:20:52.034Z,9.95
2023-01-08T11:23:26.468Z,9.93
2023-01-08T11:26:23.959Z,9.92
2023-01-08T11:29:14.516Z,9.83
2023-01-08T11:32:18.917Z,9.71
2023-01-08T11:34:59.254Z,9.59
2023-01-08T11:37:35.952Z,9.61
2023-01-08T11:40:15.477Z,9.57
2023-01-08T11:43:01.116Z,9.56
2023-01-08T11:45:51.325Z,9.52
2023-01-08T11:48:38.150Z,9.71
2023-01-08T11:51:48.695Z,9.81
2023-01-08T11:54:46.802Z,9.84
2023-01-08T11:57:41.435Z,9.81
2023-01-08T12:00:50.946Z,9.78
2023-01-08T12:03:35.211Z,9.77
2023-01-08T12:06:23.093Z,9.76
2023-01-08T12:09:36.211Z,9.80
2023-01-08T12:12:29.272Z,9.91
2023-01-08T12:15:14.995Z,10.06
2023-01-08T12:17:55.045Z,10.23
2023-01-08T12:20:35.127Z,10.38
2023-01-08T12:23:32.209Z,10.52
2023-01-08T12:26:33.799Z,10.64
2023-01-08T12:29:34.817Z,10.78
2023-01-08T12:32:15.344Z,10.81
2023-01-08T12:34:54.921Z,10.78
2023-01-08T12:37:33.853Z,10.76
2023-01-08T12:40:38.714Z,10.73
2023-01-08T12:43:27.095Z,10.61
2023-01-08T12:46:02.291Z,10.46
2023-01-08T12:48:36.540Z,10.33
2023-01-08T12:51:31.774Z,10.17
2023-01-08T12:54:18.369Z,10.14
2023-01-08T12:57:09.183Z,9.99
2023-01-08T12:59:49.392Z,10.02
2023-01-08T13:02:49.423Z,9.94
2023-01-08T13:05:20.742Z,9.93
2023-01-08T13:07:58.746Z,9.88
2023-01-08T13:10:56.625Z,9.87
2023-01-08T13:13:33.973Z,9.66
2023-01-08T13:16:07.787Z,9.78
2023-01-08T13:18:40.071Z,9.74
2023-01-08T13:21:12.674Z,9.68
2023-01-08T13:23:44.019Z,9.68
2023-01-08T13:26:27.708Z,9.59
2023-01-08T13:29:24.853Z,9.65
2023-01-08T13:31:56.150Z,9.60
2023-01-08T13:34:42.005Z,9.56
2023-01-08T13:37:27.783Z,9.51
2023-01-08T13:39:59.468Z,9.47
2023-01-08T13:42:31.396Z,9.45
2023-01-08T13:45:04.534Z,9.43
2023-01-08T13:47:43.070Z,9.41
2023-01-08T13:50:17.907Z,9.32
2023-01-08T13:52:56.748Z,9.38
2023-01-08T13:55:30.495Z,9.35
2023-01-08T13:58:08.630Z,9.27
2023-01-08T14:00:42.973Z,9.32
2023-01-08T14:03:35.987Z,9.29
2023-01-08T14:06:18.492Z,9.25
2023-01-08T14:08:58.614Z,9.01
2023-01-08T14:11:43.092Z,9.19
2023-01-08T14:14:19.901Z,9.17
2023-01-08T14:16:53.099Z,9.05
2023-01-08T14:19:25.867Z,9.11
2023-01-08T14:22:01.570Z,9.09
2023-01-08T14:24:33.307Z,9.07
2023-01-08T14:27:07.566Z,9.05
2023-01-08T14:29:45.379Z,8.94
2023-01-08T14:32:19.756Z,8.96
2023-01-08T14:34:52.860Z,8.91
2023-01-08T14:37:24.437Z,8.79
2023-01-08T14:39:55.854Z,8.74
2023-01-08T14:42:42.124Z,8.50
2023-01-08T14:45:18.333Z,8.51
2023-01-08T14:47:54.046Z,8.48
2023-01-08T14:50:37.300Z,8.30
2023-01-08T14:53:27.318Z,8.27
2023-01-08T14:55:59.537Z,8.17
2023-01-08T14:58:37.214Z,8.07
2023-01-08T15:01:23.942Z,8.00
2023-01-08T15:04:06.485Z,7.91
2023-01-08T15:06:37.877Z,7.75
2023-01-08T15:09:25.079Z,7.70
2023-01-08T15:12:02.049Z,7.62
2023-01-08T15:14:36.613Z,7.53
2023-01-08T15:17:28.781Z,7.46
2023-01-08T15:20:01.433Z,7.37
2023-01-08T15:22:33.296Z,7.31
2023-01-08T15:25:07.689Z,7.23
2023-01-08T15:27:39.622Z,7.02
2023-01-08T15:30:44.460Z,7.05
2023-01-08T15:33:16.928Z,6.96
2023-01-08T15:35:49.029Z,6.87
2023-01-08T15:38:21.782Z,6.80
2023-01-08T15:40:54.781Z,6.75
2023-01-08T15:43:26.053Z,6.72
2023-01-08T15:45:57.490Z,6.56
2023-01-08T15:48:28.877Z,6.60
2023-01-08T15:51:01.238Z,6.67
2023-01-08T15:53:32.896Z,6.66
2023-01-08T15:56:04.463Z,6.67
2023-01-08T15:58:35.735Z,6.67
2023-01-08T16:01:07.054Z,6.69
2023-01-08T16:03:38.335Z,6.72
2023-01-08T16:06:10.103Z,6.73
2023-01-08T16:08:45.764Z,6.80
2023-01-08T16:11:18.618Z,6.83
2023-01-08T16:13:49.931Z,6.87
2023-01-08T16:16:21.460Z,6.92
2023-01-08T16:18:53.059Z,6.97
2023-01-08T16:21:24.307Z,7.02
2023-01-08T16:23:55.580Z,7.17
2023-01-08T16:26:26.839Z,7.25
2023-01-08T16:28:58.234Z,7.30
2023-01-08T16:31:29.512Z,7.20
2023-01-08T16:34:02.638Z,7.27
2023-01-08T16:36:35.259Z,7.31
2023-01-08T16:39:07.250Z,7.39
2023-01-08T16:41:38.600Z,7.49
2023-01-08T16:44:36.245Z,7.65
2023-01-08T16:47:07.532Z,7.74
2023-01-08T16:49:41.428Z,7.85
2023-01-08T16:52:13.262Z,7.95
2023-01-08T16:54:45.845Z,8.06
2023-01-08T16:57:17.215Z,8.15
2023-01-08T16:59:48.573Z,8.13
2023-01-08T17:02:19.928Z,8.28
2023-01-08T17:04:51.277Z,8.32
2023-01-08T17:07:22.551Z,8.35
2023-01-08T17:09:53.822Z,8.40
2023-01-08T17:12:25.154Z,8.44
2023-01-08T17:14:56.423Z,8.43
2023-01-08T17:17:27.682Z,8.37
2023-01-08T17:19:59.001Z,8.27
2023-01-08T17:22:30.521Z,8.29
2023-01-08T17:25:02.266Z,8.26
2023-01-08T17:27:37.072Z,8.23
2023-01-08T17:30:12.911Z,8.18
2023-01-08T17:32:44.370Z,8.15
2023-01-08T17:35:15.761Z,8.03
2023-01-08T17:37:47.310Z,8.11
2023-01-08T17:40:18.740Z,8.06
2023-01-08T17:42:50.149Z,8.02
2023-01-08T17:45:21.466Z,7.94
2023-01-08T17:47:52.786Z,7.76
2023-01-08T17:50:24.116Z,7.62
2023-01-08T17:52:57.253Z,7.70
2023-01-08T17:55:29.625Z,7.62
2023-01-08T17:58:00.914Z,7.55
2023-01-08T18:00:32.193Z,7.48
2023-01-08T18:03:03.627Z,7.40
2023-01-08T18:05:34.947Z,7.33
2023-01-08T18:08:06.331Z,7.20
2023-01-08T18:10:38.537Z,7.24
2023-01-08T18:13:09.898Z,7.19
2023-01-08T18:15:41.247Z,7.15
2023-01-08T18:18:12.576Z,7.02
2023-01-08T18:20:43.924Z,7.03
2023-01-08T18:23:15.416Z,6.94
2023-01-08T18:25:46.707Z,6.74
2023-01-08T18:28:18.664Z,6.73
2023-01-08T18:30:49.968Z,6.55
2023-01-08T18:33:21.255Z,6.54
2023-01-08T18:35:53.138Z,6.42
2023-01-08T18:38:24.498Z,6.37
2023-01-08T18:40:58.205Z,6.21
2023-01-08T18:43:31.408Z,6.20
2023-01-08T18:46:06.648Z,6.12
2023-01-08T18:48:38.018Z,6.05
2023-01-08T18:51:09.312Z,5.97
2023-01-08T18:53:40.574Z,5.70
2023-01-08T18:56:21.809Z,5.70
2023-01-08T18:58:53.226Z,5.76
2023-01-08T19:01:25.429Z,5.71
2023-01-08T19:03:57.171Z,5.66
2023-01-08T19:06:28.522Z,5.66
2023-01-08T19:09:00.428Z,5.49
2023-01-08T19:11:31.817Z,5.62
2023-01-08T19:14:03.183Z,5.48
2023-01-08T19:16:34.749Z,5.54
2023-01-08T19:19:06.916Z,5.51
2023-01-08T19:21:38.271Z,5.43
2023-01-08T19:24:09.828Z,5.43
2023-01-08T19:26:41.171Z,5.30
2023-01-08T19:29:12.625Z,5.38
2023-01-08T19:31:43.957Z,5.30
2023-01-08T19:34:15.352Z,5.32
2023-01-08T19:36:46.749Z,5.40
2023-01-08T19:39:18.042Z,5.28
2023-01-08T19:42:08.103Z,5.25
2023-01-08T19:44:39.596Z,5.29
2023-01-08T19:47:11.258Z,5.31
2023-01-08T19:49:47.345Z,5.22
2023-01-08T19:52:18.716Z,5.27
2023-01-08T19:54:49.991Z,5.07
2023-01-08T19:57:21.363Z,5.33
2023-01-08T19:59:52.676Z,5.23
2023-01-08T20:02:24.121Z,5.29
2023-01-08T20:04:55.516Z,5.32
2023-01-08T20:07:26.933Z,5.36
2023-01-08T20:09:58.255Z,5.34
2023-01-08T20:12:29.622Z,5.26
2023-01-08T20:15:00.938Z,5.38
2023-01-08T20:17:32.243Z,5.31
2023-01-08T20:20:03.930Z,5.44
2023-01-08T20:22:35.287Z,5.35
2023-01-08T20:25:06.987Z,5.37
2023-01-08T20:27:38.314Z,5.32
2023-01-08T20:30:10.366Z,5.37
2023-01-08T20:32:42.090Z,5.31
2023-01-08T20:35:13.431Z,5.33
2023-01-08T20:37:46.716Z,5.31
2023-01-08T20:40:18.373Z,5.30
2023-01-08T20:42:49.639Z,5.33
2023-01-08T20:45:20.920Z,5.29
2023-01-08T20:47:52.251Z,5.55
2023-01-08T20:50:24.750Z,5.50
2023-01-08T20:52:56.003Z,5.67
2023-01-08T20:55:27.360Z,5.77
2023-01-08T20:57:59.721Z,5.80
2023-01-08T21:00:32.221Z,5.84
2023-01-08T21:03:03.640Z,5.90
2023-01-08T21:05:39.413Z,5.99
2023-01-08T21:08:10.670Z,5.98
2023-01-08T21:10:42.050Z,6.16
2023-01-08T21:13:13.759Z,6.24
2023-01-08T21:15:45.041Z,6.22
2023-01-08T21:18:16.598Z,6.37
2023-01-08T21:20:48.159Z,6.42
2023-01-08T21:23:19.440Z,6.50
2023-01-08T21:25:58.872Z,6.55
2023-01-08T21:28:30.567Z,6.49
2023-01-08T21:31:10.647Z,6.58
2023-01-08T21:33:43.823Z,6.41
2023-01-08T21:36:19.890Z,6.39
2023-01-08T21:38:51.583Z,6.40
2023-01-08T21:41:42.981Z,6.32
2023-01-08T21:44:35.967Z,6.38
2023-01-08T21:47:09.790Z,6.30
2023-01-08T21:49:42.405Z,6.38
2023-01-08T21:52:32.417Z,6.40
2023-01-08T21:55:04.515Z,6.25
2023-01-08T21:57:39.648Z,6.28
2023-01-08T22:00:12.229Z,6.19
2023-01-08T22:02:43.571Z,6.14
2023-01-08T22:05:15.965Z,6.07
2023-01-08T22:07:47.235Z,5.74
2023-01-08T22:10:18.654Z,5.92
2023-01-08T22:12:49.964Z,5.95
2023-01-08T22:15:21.297Z,5.84
2023-01-08T22:17:52.563Z,5.83
2023-01-08T22:20:23.866Z,5.80
2023-01-08T22:22:55.157Z,5.77
2023-01-08T22:25:26.538Z,5.76
2023-01-08T22:27:57.805Z,5.73
2023-01-08T22:30:29.100Z,5.70
2023-01-08T22:33:00.386Z,5.68
2023-01-08T22:35:31.673Z,5.65
2023-01-08T22:38:02.929Z,5.62
2023-01-08T22:40:34.362Z,5.50
2023-01-08T22:43:05.890Z,5.61
2023-01-08T22:45:37.194Z,5.58
2023-01-08T22:48:08.475Z,5.50
2023-01-08T22:50:40.747Z,5.56
2023-01-08T22:53:12.045Z,5.43
2023-01-08T22:55:48.244Z,5.43
2023-01-08T22:58:20.707Z,5.33
2023-01-08T23:00:51.988Z,5.51
2023-01-08T23:03:23.282Z,5.49
2023-01-08T23:06:03.704Z,5.49
2023-01-08T23:08:35.245Z,5.48
2023-01-08T23:11:09.779Z,5.48
2023-01-08T23:13:41.339Z,5.46
2023-01-08T23:16:14.851Z,5.42
2023-01-08T23:18:55.566Z,5.42
2023-01-08T23:21:28.355Z,5.30
2023-01-08T23:23:59.618Z,5.37
2023-01-08T23:26:30.940Z,5.24
2023-01-08T23:29:02.288Z,5.35
2023-01-08T23:31:37.422Z,5.32
2023-01-08T23:34:08.778Z,5.33
2023-01-08T23:36:40.783Z,5.33
2023-01-08T23:39:12.122Z,5.33
2023-01-08T23:41:43.744Z,5.28
2023-01-08T23:44:16.012Z,5.13
2023-01-08T23:46:47.291Z,5.25
2023-01-08T23:49:18.616Z,5.23
2023-01-08T23:51:49.877Z,4.96
2023-01-08T23:54:22.679Z,5.20
2023-01-08T23:56:54.444Z,5.19
2023-01-08T23:59:25.745Z,5.20
